Nearby METAR Reports

 

KORH - Worcester, Massachusetts, USA
Distance from station: NW 4mi, 7km
Updated: Sun, 24-Sep-2017 7:54am EDT
Clear
Clear
 Wind from N
Wind: N 6 mph , 9 km/h
Temperature: 73°F , 23°C
Dew Point: 61°F , 16°C
Humidity: 65%
Barometer: 30.11 inHg , 1019.6 hPa
Clouds: Clear
Visibility: 10 miles , 16 km
2017/09/24 11:54 KORH 241154Z 36005KT 10SM CLR 23/16 A3011 RMK AO2 SLP191 T02330156 10233 20189 51011
KBOS - Boston, Massachusetts, USA
Distance from station: ENE 42mi, 68km
Updated: Sun, 24-Sep-2017 7:54am EDT
Few Clouds
Few Clouds
 Wind from WNW
Wind: WNW 5 mph , 7 km/h
Temperature: 70°F , 21°C
Dew Point: 63°F , 17°C
Humidity: 78%
Barometer: 30.07 inHg , 1018.3 hPa
Clouds: Few Clouds
Visibility: 10 miles , 16 km
Cloud details: Few Clouds 25000 ft
2017/09/24 11:54 KBOS 241154Z 30004KT 10SM FEW250 21/17 A3007 RMK AO2 SLP181 T02060172 10206 20161 50011
 
KCQX - Chatham, Massachusetts, USA
Distance from station: SE 102mi, 164km
Updated: Sun, 24-Sep-2017 7:52am EDT
Fog, Overcast
Fog, Overcast
 Wind from varies
Wind: varies 3 mph , 6 km/h
Temperature: 61°F , 16°C
Dew Point: 61°F , 16°C
Humidity: 100%
Barometer: 30.06 inHg , 1017.9 hPa
Summary: Fog
Clouds: Overcast
Visibility: 1/2 mile , 2 km
Cloud details: Overcast 200 ft
2017/09/24 11:52 KCQX 241152Z AUTO VRB03KT 1/2SM FG OVC002 16/16 A3006 RMK AO2 SLP181 T01610161 10172 20150 51012
KMVY - Marthas Vineyard, Massachusetts, USA
Distance from station: SE 84mi, 135km
Updated: Sun, 24-Sep-2017 7:53am EDT
Clear
Clear
 Wind from NNE
Wind: NNE 5 mph , 7 km/h
Temperature: 64°F , 18°C
Dew Point: 64°F , 18°C
Humidity: 100%
Barometer: 30.05 inHg , 1017.6 hPa
Clouds: Clear
Visibility: 10 miles , 16 km
2017/09/24 11:53 KMVY 241153Z 02004KT 10SM CLR 18/18 A3005 RMK AO2 SLP175 T01830178 10183 20161 51009
 
KPVC - Provincetown, Massachusetts, USA
Distance from station: NNW 85mi, 136km
Updated: Sun, 24-Sep-2017 7:56am EDT
Mist, Mostly cloudy
Mist, Mostly cloudy
 Wind from NE
Wind: NE 3 mph , 6 km/h
Temperature: 63°F , 17°C
Dew Point: 63°F , 17°C
Humidity: 100%
Barometer: 30.07 inHg , 1018.3 hPa
Summary: Mist
Clouds: Mostly cloudy
Visibility: 5 miles , 8 km
Cloud details: Mostly cloudy 100 ft
2017/09/24 11:56 KPVC 241156Z AUTO 04003KT 5SM BR BKN001 17/17 A3007 RMK AO2 SLP181 60001 70001 T01720167 10172 20133 51011
KAQW - Savoy, Massachusetts, USA
Distance from station: NNW 66mi, 106km
Updated: Sun, 24-Sep-2017 7:52am EDT
Clear
Clear
 Wind from calm
Wind: Calm
Temperature: 57°F , 14°C
Dew Point: 55°F , 13°C
Humidity: 94%
Barometer: 30.14 inHg , 1020.7 hPa
Clouds: Clear
Visibility: 9 miles , 14 km
2017/09/24 11:52 KAQW 241152Z AUTO 00000KT 9SM CLR 14/13 A3014 RMK AO2 SLP207 T01390128 10139 20117 53009
 
KIZG - Fryeburg, Maine, USA
Distance from station: NNE 133mi, 214km
Updated: Sun, 24-Sep-2017 7:54am EDT
Clear
Clear
 Wind from calm
Wind: Calm
Temperature: 63°F , 17°C
Dew Point: 63°F , 17°C
Humidity: 100%
Barometer: 30.09 inHg , 1019 hPa
Clouds: Clear
Visibility: 10 miles , 16 km
2017/09/24 11:54 KIZG 241154Z AUTO 00000KT 10SM CLR 17/17 A3009 RMK AO2 SLP187 T01720167 10172 20128 50008 $
KMWN - Mt Washington, New Hampshire, USA
Distance from station: NNE 146mi, 234km
Updated: Sun, 24-Sep-2017 6:50am EDT
Few Clouds
Few Clouds
 Wind from NW
Wind: NW 28 mph , 44 km/h
Temperature: 55°F , 13°C
Dew Point: 46°F , 8°C
Humidity: 72%
Clouds: Few Clouds
Visibility: 40 miles , 64 km
Cloud details: Few Clouds 3000 ft
Few Clouds 18000 ft
2017/09/24 10:50 KMWN 241050Z 31024KT 40SM FEW030 FEW180 13/08 RMK HZ DSNT ALQDS PTCHY VLY FG W-NE
 
KBML - Berlin, New Hampshire, USA
Distance from station: NNE 160mi, 257km
Updated: Sun, 24-Sep-2017 7:52am EDT
Fog, Overcast
Fog, Overcast
 Wind from calm
Wind: Calm
Temperature: 55°F , 13°C
Dew Point: 54°F , 12°C
Humidity: 94%
Barometer: 30.12 inHg , 1020 hPa
Summary: Fog
Clouds: Overcast
Visibility: 1/4 mile , 2 km
Cloud details: Overcast 200 ft
2017/09/24 11:52 KBML 241152Z AUTO 00000KT 1/4SM FG VV002 13/12 A3012 RMK AO2 SLP201 T01280117 10133 20106 54000 $